createdAt,value
2018-07-28T00:00:04.930Z,13.55
2018-07-28T00:02:33.114Z,13.72
2018-07-28T00:05:01.243Z,14.35
2018-07-28T00:07:29.247Z,11.12
2018-07-28T00:09:57.352Z,10.78
2018-07-28T00:12:25.914Z,13.72
2018-07-28T00:14:53.978Z,11.43
2018-07-28T00:17:22.390Z,12.15
2018-07-28T00:19:50.931Z,12.58
2018-07-28T00:22:19.010Z,13.35
2018-07-28T00:24:47.407Z,13.65
2018-07-28T00:27:15.637Z,11.12
2018-07-28T00:29:43.770Z,12.55
2018-07-28T00:32:11.923Z,12.15
2018-07-28T00:34:39.931Z,12.45
2018-07-28T00:37:07.887Z,11.28
2018-07-28T00:39:35.814Z,13.98
2018-07-28T00:42:04.127Z,11.10
2018-07-28T00:44:32.380Z,12.25
2018-07-28T00:47:00.878Z,11.78
2018-07-28T00:49:29.144Z,12.35
2018-07-28T00:51:57.324Z,12.20
2018-07-28T00:54:25.845Z,12.85
2018-07-28T00:56:53.970Z,13.08
2018-07-28T00:59:22.353Z,10.90
2018-07-28T01:01:50.489Z,12.25
2018-07-28T01:04:19.053Z,9.55
2018-07-28T01:06:47.194Z,12.25
2018-07-28T01:09:15.247Z,13.00
2018-07-28T01:11:43.429Z,11.05
2018-07-28T01:14:12.043Z,12.85
2018-07-28T01:16:40.087Z,10.82
2018-07-28T01:19:08.111Z,10.65
2018-07-28T01:21:36.239Z,11.93
2018-07-28T01:24:04.256Z,15.13
2018-07-28T01:26:32.729Z,16.48
2018-07-28T01:29:06.778Z,11.90
2018-07-28T01:31:34.803Z,11.53
2018-07-28T01:34:03.015Z,13.60
2018-07-28T01:36:31.612Z,10.43
2018-07-28T01:39:00.022Z,13.60
2018-07-28T01:41:28.029Z,12.93
2018-07-28T01:43:56.060Z,14.28
2018-07-28T01:46:25.124Z,11.25
2018-07-28T01:48:53.122Z,12.58
2018-07-28T01:51:21.139Z,12.00
2018-07-28T01:53:49.588Z,10.75
2018-07-28T01:56:17.906Z,11.57
2018-07-28T01:58:46.084Z,12.53
2018-07-28T02:01:14.112Z,12.68
2018-07-28T02:03:42.198Z,11.20
2018-07-28T02:06:12.026Z,12.37
2018-07-28T02:08:39.982Z,11.50
2018-07-28T02:11:08.044Z,11.25
2018-07-28T02:13:36.064Z,12.45
2018-07-28T02:16:04.594Z,11.60
2018-07-28T02:18:33.025Z,13.83
2018-07-28T02:21:01.447Z,12.25
2018-07-28T02:23:30.254Z,12.93
2018-07-28T02:25:58.405Z,11.70
2018-07-28T02:28:27.809Z,12.53
2018-07-28T02:30:55.829Z,10.75
2018-07-28T02:33:23.963Z,14.20
2018-07-28T02:35:52.022Z,13.62
2018-07-28T02:38:20.105Z,11.18
2018-07-28T02:40:48.395Z,11.88
2018-07-28T02:43:16.658Z,11.90
2018-07-28T02:45:44.758Z,12.68
2018-07-28T02:48:12.715Z,13.93
2018-07-28T02:50:40.718Z,12.33
2018-07-28T02:53:08.770Z,11.70
2018-07-28T02:55:36.972Z,10.30
2018-07-28T02:58:05.567Z,13.35
2018-07-28T03:00:33.971Z,10.72
2018-07-28T03:03:02.103Z,13.60
2018-07-28T03:05:30.468Z,12.60
2018-07-28T03:07:58.846Z,13.15
2018-07-28T03:10:26.926Z,12.03
2018-07-28T03:12:54.995Z,11.48
2018-07-28T03:15:32.269Z,12.28
2018-07-28T03:18:03.450Z,14.65
2018-07-28T03:20:31.567Z,11.55
2018-07-28T03:23:00.451Z,12.15
2018-07-28T03:25:29.040Z,13.88
2018-07-28T03:27:57.250Z,12.25
2018-07-28T03:30:26.134Z,12.63
2018-07-28T03:32:54.406Z,13.25
2018-07-28T03:35:22.574Z,10.93
2018-07-28T03:37:51.365Z,10.95
2018-07-28T03:40:19.541Z,12.05
2018-07-28T03:42:47.640Z,11.97
2018-07-28T03:45:15.979Z,13.58
2018-07-28T03:47:44.015Z,13.45
2018-07-28T03:50:12.136Z,16.05
2018-07-28T03:52:40.358Z,15.43
2018-07-28T03:55:09.555Z,19.20
2018-07-28T03:57:37.707Z,15.50
2018-07-28T04:00:09.456Z,15.28
2018-07-28T04:02:37.976Z,16.50
2018-07-28T04:05:07.544Z,15.90
2018-07-28T04:07:35.705Z,12.85
2018-07-28T04:10:04.426Z,14.10
2018-07-28T04:12:32.600Z,19.20
2018-07-28T04:15:00.691Z,14.50
2018-07-28T04:17:29.507Z,17.23
2018-07-28T04:19:57.910Z,17.07
2018-07-28T04:22:25.918Z,14.28
2018-07-28T04:24:54.631Z,17.50
2018-07-28T04:27:24.246Z,16.70
2018-07-28T04:29:52.843Z,19.00
2018-07-28T04:32:20.841Z,15.05
2018-07-28T04:34:49.210Z,15.00
2018-07-28T04:37:17.363Z,17.82
2018-07-28T04:39:45.535Z,14.65
2018-07-28T04:42:13.544Z,15.38
2018-07-28T04:44:41.500Z,15.85
2018-07-28T04:47:09.494Z,14.28
2018-07-28T04:49:37.691Z,17.23
2018-07-28T04:52:06.015Z,16.30
2018-07-28T04:54:34.330Z,15.55
2018-07-28T04:57:03.738Z,17.23
2018-07-28T04:59:32.463Z,13.83
2018-07-28T05:02:02.218Z,12.82
2018-07-28T05:04:30.600Z,15.05
2018-07-28T05:06:58.694Z,14.18
2018-07-28T05:09:26.738Z,14.28
2018-07-28T05:11:54.824Z,14.95
2018-07-28T05:14:23.238Z,16.50
2018-07-28T05:16:51.245Z,16.12
2018-07-28T05:19:19.797Z,18.57
2018-07-28T05:21:48.496Z,18.20
2018-07-28T05:24:18.243Z,18.35
2018-07-28T05:26:46.390Z,21.70
2018-07-28T05:29:15.588Z,18.05
2018-07-28T05:31:44.206Z,25.95
2018-07-28T05:34:13.760Z,22.87
2018-07-28T05:36:41.948Z,23.83
2018-07-28T05:39:11.765Z,20.97
2018-07-28T05:41:40.471Z,23.40
2018-07-28T05:44:08.700Z,21.57
2018-07-28T05:46:40.408Z,19.60
2018-07-28T05:49:08.658Z,25.52
2018-07-28T05:51:37.448Z,17.45
2018-07-28T05:54:05.492Z,30.95
2018-07-28T05:56:36.222Z,36.45
2018-07-28T05:59:04.634Z,20.45
2018-07-28T06:01:33.031Z,16.15
2018-07-28T06:04:03.349Z,26.65
2018-07-28T06:06:33.525Z,18.42
2018-07-28T06:09:01.516Z,18.35
2018-07-28T06:11:30.061Z,21.80
2018-07-28T06:13:58.197Z,26.62
2018-07-28T06:16:27.179Z,22.15
2018-07-28T06:18:55.902Z,20.12
2018-07-28T06:21:41.082Z,21.90
2018-07-28T06:24:19.092Z,22.48
2018-07-28T06:26:54.872Z,21.70
2018-07-28T06:29:36.972Z,20.23
2018-07-28T06:32:20.321Z,23.77
2018-07-28T06:35:02.159Z,21.60
2018-07-28T06:37:44.685Z,25.27
2018-07-28T06:40:19.942Z,23.30
2018-07-28T06:42:58.787Z,19.90
2018-07-28T06:45:46.284Z,22.52
2018-07-28T06:48:22.529Z,21.75
2018-07-28T06:50:59.726Z,23.70
2018-07-28T06:53:37.163Z,22.17
2018-07-28T06:58:48.798Z,18.87
2018-07-28T07:01:20.484Z,16.90
2018-07-28T07:03:53.063Z,17.55
2018-07-28T07:06:35.929Z,17.62
2018-07-28T07:09:13.629Z,15.93
2018-07-28T07:11:45.189Z,18.32
2018-07-28T07:14:19.693Z,20.45
2018-07-28T07:16:51.032Z,21.12
2018-07-28T07:19:27.153Z,19.65
2018-07-28T07:21:59.023Z,17.82
2018-07-28T07:24:31.599Z,19.40
2018-07-28T07:27:02.017Z,15.55
2018-07-28T07:29:35.105Z,17.17
2018-07-28T07:32:09.435Z,17.73
2018-07-28T07:37:16.811Z,18.87
2018-07-28T07:39:48.544Z,24.18
2018-07-28T07:42:21.478Z,22.58
2018-07-28T07:45:02.652Z,26.25
2018-07-28T07:47:40.089Z,21.37
2018-07-28T07:50:15.770Z,24.07
2018-07-28T07:52:44.775Z,24.85
2018-07-28T07:55:12.908Z,27.62
2018-07-28T07:57:40.946Z,24.65
2018-07-28T08:00:10.174Z,23.98
2018-07-28T08:02:38.206Z,26.00
2018-07-28T08:05:06.558Z,25.77
2018-07-28T08:07:35.091Z,24.85
2018-07-28T08:10:04.539Z,22.55
2018-07-28T08:12:32.621Z,26.37
2018-07-28T08:15:01.883Z,26.62
2018-07-28T08:17:29.987Z,32.08
2018-07-28T08:19:58.455Z,26.07
2018-07-28T08:22:26.670Z,26.73
2018-07-28T08:24:55.571Z,27.55
2018-07-28T08:27:23.832Z,23.73
2018-07-28T08:29:51.804Z,24.70
2018-07-28T08:32:19.810Z,19.65
2018-07-28T08:34:47.846Z,19.95
2018-07-28T08:37:15.840Z,20.00
2018-07-28T08:39:43.947Z,20.12
2018-07-28T08:42:12.884Z,18.67
2018-07-28T08:44:41.486Z,19.48
2018-07-28T08:47:12.019Z,23.50
2018-07-28T08:49:41.355Z,23.65
2018-07-28T08:52:09.753Z,22.67
2018-07-28T08:54:37.750Z,23.60
2018-07-28T08:57:05.744Z,20.50
2018-07-28T08:59:33.794Z,20.17
2018-07-28T09:02:01.855Z,21.07
2018-07-28T09:04:30.018Z,22.02
2018-07-28T09:06:58.099Z,22.07
2018-07-28T09:09:26.221Z,20.77
2018-07-28T09:11:54.245Z,20.77
2018-07-28T09:14:22.214Z,19.57
2018-07-28T09:16:50.252Z,19.37
2018-07-28T09:19:18.589Z,19.32
2018-07-28T09:21:46.608Z,22.05
2018-07-28T09:24:15.302Z,20.60
2018-07-28T09:26:43.361Z,19.57
2018-07-28T09:29:11.442Z,19.20
2018-07-28T09:31:40.087Z,19.87
2018-07-28T09:34:08.118Z,16.70
2018-07-28T09:36:36.305Z,19.23
2018-07-28T09:39:08.048Z,16.90
2018-07-28T09:41:36.227Z,16.10
2018-07-28T09:44:04.300Z,16.97
2018-07-28T09:46:32.501Z,18.60
2018-07-28T09:49:00.543Z,20.88
2018-07-28T09:51:29.283Z,19.75
2018-07-28T09:53:57.326Z,18.92
2018-07-28T09:56:25.422Z,16.55
2018-07-28T09:58:53.393Z,20.50
2018-07-28T10:01:22.942Z,18.32
2018-07-28T10:03:51.436Z,20.57
2018-07-28T10:06:19.476Z,19.17
2018-07-28T10:08:47.416Z,20.00
2018-07-28T10:11:15.650Z,18.73
2018-07-28T10:13:44.253Z,16.87
2018-07-28T10:16:12.497Z,15.70
2018-07-28T10:18:40.485Z,16.20
2018-07-28T10:21:08.940Z,15.68
2018-07-28T10:23:36.941Z,21.12
2018-07-28T10:26:05.399Z,18.52
2018-07-28T10:28:33.443Z,19.25
2018-07-28T10:31:01.453Z,16.95
2018-07-28T10:33:29.435Z,18.45
2018-07-28T10:35:57.429Z,17.37
2018-07-28T10:38:25.724Z,15.68
2018-07-28T10:40:53.802Z,18.62
2018-07-28T10:43:22.539Z,15.58
2018-07-28T10:45:50.544Z,16.52
2018-07-28T10:48:18.574Z,14.87
2018-07-28T10:50:46.575Z,13.18
2018-07-28T10:53:14.731Z,15.15
2018-07-28T10:55:52.320Z,13.85
2018-07-28T10:58:23.292Z,14.43
2018-07-28T11:00:51.872Z,14.35
2018-07-28T11:03:21.542Z,15.68
2018-07-28T11:05:55.348Z,13.90
2018-07-28T11:08:25.849Z,13.80
2018-07-28T11:10:55.461Z,13.30
2018-07-28T11:13:26.269Z,14.03
2018-07-28T11:15:58.909Z,15.10
2018-07-28T11:18:36.029Z,15.70
2018-07-28T11:26:35.902Z,16.77
2018-07-28T11:29:04.067Z,16.67
2018-07-28T11:31:43.232Z,16.90
2018-07-28T11:34:22.432Z,16.17
2018-07-28T11:37:02.810Z,16.02
2018-07-28T11:39:41.827Z,21.12
2018-07-28T11:42:20.834Z,21.40
2018-07-28T11:45:22.904Z,16.27
2018-07-28T11:47:50.928Z,20.20
2018-07-28T11:50:18.940Z,18.70
2018-07-28T11:52:47.155Z,20.02
2018-07-28T11:55:15.193Z,17.52
2018-07-28T11:57:43.206Z,16.48
2018-07-28T12:00:11.283Z,16.73
2018-07-28T12:02:39.782Z,14.05
2018-07-28T12:05:08.117Z,15.70
2018-07-28T12:07:36.212Z,15.15
2018-07-28T12:10:06.667Z,13.60
2018-07-28T12:12:34.750Z,13.43
2018-07-28T12:15:02.948Z,13.00
2018-07-28T12:17:31.019Z,13.28
2018-07-28T12:19:59.796Z,14.00
2018-07-28T12:22:27.962Z,11.35
2018-07-28T12:24:56.071Z,13.13
2018-07-28T12:27:24.172Z,12.95
2018-07-28T12:29:52.210Z,12.73
2018-07-28T12:32:20.430Z,14.78
2018-07-28T12:34:51.667Z,12.70
2018-07-28T12:37:19.799Z,13.53
2018-07-28T12:39:50.024Z,13.15
2018-07-28T12:42:18.688Z,13.08
2018-07-28T12:44:46.799Z,13.22
2018-07-28T12:47:14.828Z,14.53
2018-07-28T12:49:43.031Z,14.13
2018-07-28T12:52:11.059Z,13.08
2018-07-28T12:54:39.638Z,13.50
2018-07-28T12:57:09.012Z,13.38
2018-07-28T12:59:38.037Z,12.98
2018-07-28T13:02:06.179Z,13.30
2018-07-28T13:04:34.411Z,12.80
2018-07-28T13:07:02.529Z,12.33
2018-07-28T13:09:30.548Z,13.18
2018-07-28T13:11:58.612Z,12.82
2018-07-28T13:14:26.837Z,15.03
2018-07-28T13:16:54.961Z,12.70
2018-07-28T13:19:23.109Z,11.93
2018-07-28T13:21:51.325Z,12.68
2018-07-28T13:24:19.331Z,13.38
2018-07-28T13:26:47.820Z,13.10
2018-07-28T13:29:15.807Z,13.90
2018-07-28T13:31:43.879Z,13.28
2018-07-28T13:34:12.206Z,13.10
2018-07-28T13:36:40.204Z,13.22
2018-07-28T13:39:09.188Z,13.90
2018-07-28T13:41:37.298Z,13.15
2018-07-28T13:44:05.626Z,12.37
2018-07-28T13:46:33.710Z,12.70
2018-07-28T13:49:01.744Z,11.12
2018-07-28T13:51:29.704Z,12.58
2018-07-28T13:53:58.191Z,12.10
2018-07-28T13:56:28.396Z,12.68
2018-07-28T13:58:56.595Z,11.78
2018-07-28T14:01:24.753Z,13.32
2018-07-28T14:03:52.831Z,11.45
2018-07-28T14:06:20.834Z,12.10
2018-07-28T14:08:51.621Z,12.13
2018-07-28T14:11:19.736Z,12.03
2018-07-28T14:13:47.864Z,12.10
2018-07-28T14:16:16.027Z,12.75
2018-07-28T14:18:44.155Z,11.18
2018-07-28T14:21:12.234Z,11.97
2018-07-28T14:23:40.355Z,12.88
2018-07-28T14:26:08.976Z,10.55
2018-07-28T14:28:37.015Z,10.08
2018-07-28T14:31:05.028Z,10.65
2018-07-28T14:33:33.042Z,11.20
2018-07-28T14:36:02.681Z,10.80
2018-07-28T14:38:30.787Z,12.93
2018-07-28T14:40:58.803Z,13.53
2018-07-28T14:43:27.004Z,14.13
2018-07-28T14:45:55.165Z,19.02
2018-07-28T14:48:23.244Z,12.60
2018-07-28T14:50:51.363Z,13.00
2018-07-28T14:53:19.796Z,14.40
2018-07-28T14:55:47.971Z,12.80
2018-07-28T14:58:16.151Z,12.80
2018-07-28T15:00:44.206Z,12.30
2018-07-28T15:03:12.484Z,12.30
2018-07-28T15:05:40.476Z,11.65
2018-07-28T15:08:08.658Z,10.50
2018-07-28T15:10:37.007Z,11.05
2018-07-28T15:13:05.086Z,12.25
2018-07-28T15:15:33.251Z,10.25
2018-07-28T15:18:01.242Z,10.55
2018-07-28T15:20:29.322Z,10.78
2018-07-28T15:22:57.387Z,10.55
2018-07-28T15:25:25.452Z,11.88
2018-07-28T15:27:53.607Z,9.58
2018-07-28T15:30:22.633Z,11.53
2018-07-28T15:32:50.746Z,11.28
2018-07-28T15:35:19.293Z,10.98
2018-07-28T15:37:47.565Z,13.13
2018-07-28T15:40:15.602Z,12.18
2018-07-28T15:42:43.923Z,13.08
2018-07-28T15:45:12.077Z,12.28
2018-07-28T15:47:40.251Z,11.53
2018-07-28T15:50:08.235Z,10.90
2018-07-28T15:52:36.330Z,10.55
2018-07-28T15:55:04.378Z,8.17
2018-07-28T15:57:32.467Z,8.80
2018-07-28T16:00:00.837Z,8.70
2018-07-28T16:02:29.023Z,13.03
2018-07-28T16:04:57.524Z,11.45
2018-07-28T16:07:25.967Z,10.63
2018-07-28T16:09:54.540Z,12.13
2018-07-28T16:12:22.599Z,10.72
2018-07-28T16:14:51.136Z,8.83
2018-07-28T16:17:19.135Z,11.03
2018-07-28T16:19:47.738Z,10.93
2018-07-28T16:22:15.722Z,10.38
2018-07-28T16:24:43.738Z,9.10
2018-07-28T16:27:11.712Z,8.45
2018-07-28T16:29:39.832Z,10.13
2018-07-28T16:32:07.901Z,10.88
2018-07-28T16:34:36.346Z,10.98
2018-07-28T16:37:04.802Z,11.45
2018-07-28T16:39:32.822Z,10.53
2018-07-28T16:42:00.977Z,11.65
2018-07-28T16:44:29.350Z,10.32
2018-07-28T16:46:57.438Z,15.45
2018-07-28T16:49:25.402Z,9.38
2018-07-28T16:51:53.472Z,11.48
2018-07-28T16:54:21.565Z,10.58
2018-07-28T16:56:50.029Z,13.28
2018-07-28T16:59:18.090Z,11.10
2018-07-28T17:01:46.389Z,10.95
2018-07-28T17:04:14.404Z,12.95
2018-07-28T17:06:42.782Z,11.12
2018-07-28T17:09:12.181Z,8.75
2018-07-28T17:11:41.112Z,11.85
2018-07-28T17:14:09.312Z,13.03
2018-07-28T17:16:41.810Z,11.38
2018-07-28T17:19:10.020Z,12.13
2018-07-28T17:21:38.187Z,10.30
2018-07-28T17:24:06.214Z,10.85
2018-07-28T17:26:34.484Z,10.72
2018-07-28T17:29:02.506Z,9.28
2018-07-28T17:31:30.705Z,10.65
2018-07-28T17:33:59.160Z,12.82
2018-07-28T17:36:27.221Z,8.28
2018-07-28T17:38:55.608Z,11.00
2018-07-28T17:41:23.700Z,11.60
2018-07-28T17:43:51.739Z,14.55
2018-07-28T17:46:19.854Z,12.40
2018-07-28T17:48:47.910Z,12.78
2018-07-28T17:51:15.975Z,10.93
2018-07-28T17:53:44.043Z,11.20
2018-07-28T17:56:12.509Z,11.33
2018-07-28T17:58:40.627Z,9.93
2018-07-28T18:01:08.785Z,11.20
2018-07-28T18:03:36.845Z,9.08
2018-07-28T18:06:05.083Z,11.60
2018-07-28T18:08:33.134Z,11.85
2018-07-28T18:11:01.199Z,13.08
2018-07-28T18:13:29.259Z,10.20
2018-07-28T18:15:57.602Z,9.38
2018-07-28T18:18:25.957Z,10.58
2018-07-28T18:20:54.007Z,8.75
2018-07-28T18:23:22.002Z,9.40
2018-07-28T18:25:50.302Z,10.75
2018-07-28T18:28:18.427Z,10.90
2018-07-28T18:30:46.515Z,10.58
2018-07-28T18:33:14.955Z,11.55
2018-07-28T18:35:43.288Z,9.63
2018-07-28T18:38:11.568Z,9.13
2018-07-28T18:40:39.719Z,9.93
2018-07-28T18:43:08.186Z,10.93
2018-07-28T18:45:37.290Z,12.75
2018-07-28T18:48:05.528Z,11.00
2018-07-28T18:50:33.536Z,10.72
2018-07-28T18:53:01.600Z,11.90
2018-07-28T18:55:29.932Z,11.57
2018-07-28T18:57:57.986Z,11.30
2018-07-28T19:00:26.700Z,14.33
2018-07-28T19:02:55.332Z,9.63
2018-07-28T19:05:23.486Z,13.00
2018-07-28T19:07:51.787Z,11.33
2018-07-28T19:10:20.093Z,11.70
2018-07-28T19:12:53.634Z,12.73
2018-07-28T19:15:21.708Z,13.98
2018-07-28T19:17:56.059Z,11.08
2018-07-28T19:20:23.989Z,11.35
2018-07-28T19:22:58.368Z,12.20
2018-07-28T19:25:26.924Z,12.13
2018-07-28T19:28:00.756Z,11.10
2018-07-28T19:30:28.966Z,10.03
2018-07-28T19:32:56.956Z,12.55
2018-07-28T19:35:29.849Z,12.47
2018-07-28T19:37:57.916Z,10.20
2018-07-28T19:40:26.771Z,13.08
2018-07-28T19:42:55.487Z,10.58
2018-07-28T19:45:23.510Z,11.57
2018-07-28T19:47:51.606Z,13.25
2018-07-28T19:50:20.899Z,12.88
2018-07-28T19:52:49.051Z,11.05
2018-07-28T19:55:17.093Z,13.62
2018-07-28T19:57:45.384Z,14.03
2018-07-28T20:00:14.878Z,20.55
2018-07-28T20:02:46.414Z,43.48
2018-07-28T20:05:14.502Z,21.15
2018-07-28T20:07:42.598Z,15.55
2018-07-28T20:10:11.431Z,17.42
2018-07-28T20:12:39.494Z,13.75
2018-07-28T20:15:07.628Z,20.45
2018-07-28T20:17:36.212Z,14.68
2018-07-28T20:20:04.473Z,15.63
2018-07-28T20:22:32.546Z,13.62
2018-07-28T20:25:08.733Z,14.98
2018-07-28T20:27:37.634Z,12.65
2018-07-28T20:30:05.755Z,13.58
2018-07-28T20:32:33.748Z,14.43
2018-07-28T20:35:01.835Z,15.10
2018-07-28T20:37:29.804Z,12.63
2018-07-28T20:39:57.853Z,13.32
2018-07-28T20:42:27.690Z,13.38
2018-07-28T20:44:56.391Z,14.93
2018-07-28T20:47:24.402Z,16.75
2018-07-28T20:49:52.549Z,13.00
2018-07-28T20:52:20.610Z,14.03
2018-07-28T20:54:49.290Z,14.87
2018-07-28T20:57:18.344Z,15.38
2018-07-28T20:59:46.568Z,13.10
2018-07-28T21:02:15.179Z,17.17
2018-07-28T21:04:43.192Z,15.95
2018-07-28T21:07:11.159Z,13.75
2018-07-28T21:09:39.101Z,12.73
2018-07-28T21:12:07.142Z,13.80
2018-07-28T21:14:35.260Z,15.13
2018-07-28T21:17:03.392Z,13.62
2018-07-28T21:19:31.846Z,14.70
2018-07-28T21:21:59.925Z,14.73
2018-07-28T21:24:28.010Z,16.00
2018-07-28T21:26:56.111Z,13.45
2018-07-28T21:29:24.141Z,14.43
2018-07-28T21:31:52.727Z,15.18
2018-07-28T21:34:20.800Z,17.10
2018-07-28T21:36:48.854Z,14.38
2018-07-28T21:39:16.963Z,15.53
2018-07-28T21:41:45.138Z,12.70
2018-07-28T21:44:13.086Z,12.70
2018-07-28T21:46:41.010Z,14.58
2018-07-28T21:49:09.490Z,17.70
2018-07-28T21:51:37.547Z,17.98
2018-07-28T21:54:05.635Z,17.85
2018-07-28T21:56:33.786Z,18.23
2018-07-28T21:59:02.304Z,14.25
2018-07-28T22:01:30.480Z,15.03
2018-07-28T22:04:01.656Z,14.63
2018-07-28T22:06:30.270Z,14.68
2018-07-28T22:08:58.404Z,13.85
2018-07-28T22:11:26.430Z,14.87
2018-07-28T22:13:54.495Z,14.87
2018-07-28T22:16:22.630Z,16.10
2018-07-28T22:18:50.731Z,15.08
2018-07-28T22:21:18.879Z,15.43
2018-07-28T22:23:46.896Z,14.60
2018-07-28T22:26:14.907Z,14.65
2018-07-28T22:28:42.928Z,17.02
2018-07-28T22:31:11.000Z,15.80
2018-07-28T22:33:39.067Z,14.75
2018-07-28T22:36:07.612Z,15.00
2018-07-28T22:38:35.693Z,15.95
2018-07-28T22:41:03.768Z,16.15
2018-07-28T22:43:31.845Z,15.78
2018-07-28T22:45:59.917Z,14.70
2018-07-28T22:48:27.975Z,14.60
2018-07-28T22:50:56.499Z,15.63
2018-07-28T22:53:24.673Z,15.63
2018-07-28T22:55:52.737Z,14.33
2018-07-28T22:58:20.771Z,15.80
2018-07-28T23:00:48.878Z,16.00
2018-07-28T23:03:17.012Z,15.28
2018-07-28T23:05:45.092Z,14.70
2018-07-28T23:08:13.108Z,14.20
2018-07-28T23:10:41.355Z,15.80
2018-07-28T23:16:00.191Z,14.35
2018-07-28T23:18:28.258Z,14.35
2018-07-28T23:20:56.368Z,14.65
2018-07-28T23:23:24.410Z,16.48
2018-07-28T23:25:52.599Z,14.65
2018-07-28T23:28:20.777Z,14.13
2018-07-28T23:30:48.781Z,15.68
2018-07-28T23:33:16.788Z,17.50
2018-07-28T23:35:45.399Z,15.28
2018-07-28T23:38:13.646Z,16.48
2018-07-28T23:40:44.739Z,15.38
2018-07-28T23:43:12.751Z,15.60
2018-07-28T23:45:40.811Z,15.30
2018-07-28T23:48:08.879Z,13.68
2018-07-28T23:50:36.910Z,16.12
2018-07-28T23:53:04.928Z,15.32
2018-07-28T23:55:33.099Z,14.45
2018-07-28T23:58:01.345Z,13.38
